Time;durP1;ratioP1;P1;durP2;ratioP2;P2;SDS_P1;SDS_P2;PMS_P1;PMS_P2;Temp;Humidity;BMP_temperature;BMP_pressure;BME280_temperature;BME280_humidity;BME280_pressure;Samples;Min_cycle;Max_cycle;Signal;HPM_P1;HPM_P2
2023/01/24 00:00:12;;;;;;;20.67;8.52;;;;;;;1.01;100.00;101763.47;5159926;27;20046;-70
2023/01/24 00:02:38;;;;;;;21.80;9.20;;;;;;;1.00;100.00;101767.22;5160338;27;20331;-70
2023/01/24 00:05:06;;;;;;;29.48;9.50;;;;;;;1.14;100.00;101755.94;5159877;27;20050;-69
2023/01/24 00:07:32;;;;;;;25.38;9.70;;;;;;;1.15;100.00;101760.25;5159801;27;20069;-69
2023/01/24 00:09:58;;;;;;;20.83;8.38;;;;;;;1.20;100.00;101761.41;5159975;27;20057;-70
2023/01/24 00:12:24;;;;;;;26.00;9.05;;;;;;;1.23;100.00;101771.75;5160061;27;20090;-69
2023/01/24 00:14:53;;;;;;;27.13;8.35;;;;;;;1.21;100.00;101760.38;5159924;27;20043;-69
2023/01/24 00:17:19;;;;;;;21.45;8.35;;;;;;;1.11;100.00;101756.41;5159938;27;20054;-70
2023/01/24 00:19:45;;;;;;;20.17;9.32;;;;;;;1.22;100.00;101753.91;5160310;27;20080;-69
2023/01/24 00:22:11;;;;;;;27.05;9.70;;;;;;;1.26;100.00;101757.78;5159876;27;20065;-69
2023/01/24 00:24:38;;;;;;;22.25;9.07;;;;;;;1.30;100.00;101758.94;5159930;27;20050;-68
2023/01/24 00:27:04;;;;;;;19.55;9.13;;;;;;;1.22;100.00;101760.13;5159496;27;20066;-70
2023/01/24 00:29:30;;;;;;;21.60;9.18;;;;;;;1.27;100.00;101762.13;5159935;27;20061;-67
2023/01/24 00:31:57;;;;;;;19.33;9.07;;;;;;;1.20;100.00;101758.72;5159302;27;20396;-70
2023/01/24 00:34:24;;;;;;;22.15;7.80;;;;;;;1.20;100.00;101759.56;5159429;27;20175;-69
2023/01/24 00:36:50;;;;;;;23.63;9.40;;;;;;;1.17;100.00;101760.03;5159429;27;20060;-69
2023/01/24 00:39:16;;;;;;;21.25;8.55;;;;;;;1.32;100.00;101751.41;5159306;27;20408;-68
2023/01/24 00:41:43;;;;;;;18.92;9.52;;;;;;;1.35;100.00;101751.75;5159203;27;20079;-70
2023/01/24 00:44:09;;;;;;;22.05;7.95;;;;;;;1.37;100.00;101751.53;5159353;27;20388;-67
2023/01/24 00:46:35;;;;;;;30.60;8.65;;;;;;;1.32;100.00;101759.53;5159426;27;20051;-68
2023/01/24 00:49:02;;;;;;;25.38;9.65;;;;;;;1.29;100.00;101752.69;5159088;27;20057;-71
2023/01/24 00:51:29;;;;;;;24.60;9.13;;;;;;;1.30;100.00;101754.38;5159554;27;20046;-69
2023/01/24 00:53:55;;;;;;;26.80;9.13;;;;;;;1.29;100.00;101750.00;5159147;27;20292;-69
2023/01/24 00:56:21;;;;;;;27.45;10.60;;;;;;;1.31;100.00;101733.56;5159468;27;20054;-68
2023/01/24 00:58:47;;;;;;;30.77;9.43;;;;;;;1.05;100.00;101748.44;5158980;27;20137;-70
2023/01/24 01:01:14;;;;;;;29.25;9.52;;;;;;;0.91;100.00;101732.47;5158413;27;20257;-69
2023/01/24 01:03:40;;;;;;;26.80;10.27;;;;;;;1.06;100.00;101720.34;5158936;27;20372;-69
2023/01/24 01:06:09;;;;;;;40.25;10.15;;;;;;;1.23;100.00;101715.00;5158972;27;20054;-69
2023/01/24 01:08:36;;;;;;;21.52;9.45;;;;;;;1.33;100.00;101718.75;5158864;27;20046;-70
2023/01/24 01:11:02;;;;;;;36.38;10.23;;;;;;;1.24;100.00;101716.66;5158987;27;20111;-68
2023/01/24 01:13:28;;;;;;;26.02;9.23;;;;;;;1.23;100.00;101720.41;5159122;27;20135;-70
2023/01/24 01:16:01;;;;;;;29.17;10.05;;;;;;;1.26;100.00;101722.63;5158873;27;20057;-69
2023/01/24 01:18:27;;;;;;;54.72;10.70;;;;;;;1.33;100.00;101723.31;5158982;27;20054;-70
2023/01/24 01:20:53;;;;;;;39.92;9.32;;;;;;;1.36;100.00;101733.66;5158680;27;20050;-68
2023/01/24 01:23:20;;;;;;;32.03;10.40;;;;;;;0.90;100.00;101743.50;5159138;27;20043;-70
2023/01/24 01:25:47;;;;;;;22.33;10.35;;;;;;;0.86;100.00;101728.84;5158617;27;20042;-68
2023/01/24 01:28:13;;;;;;;24.90;10.10;;;;;;;1.08;100.00;101719.06;5158965;27;20315;-70
2023/01/24 01:30:39;;;;;;;22.73;10.35;;;;;;;1.09;100.00;101719.88;5158483;27;20058;-67
2023/01/24 01:33:05;;;;;;;26.95;10.25;;;;;;;1.15;100.00;101716.22;5158442;27;20061;-70
2023/01/24 01:35:32;;;;;;;25.83;10.52;;;;;;;1.16;100.00;101731.34;5158524;27;20137;-67
2023/01/24 01:37:58;;;;;;;29.63;10.02;;;;;;;1.11;100.00;101728.56;5158426;27;20499;-71
2023/01/24 01:40:25;;;;;;;26.70;9.30;;;;;;;1.26;100.00;101728.84;5158608;27;20050;-67
2023/01/24 01:42:53;;;;;;;25.08;10.35;;;;;;;1.03;100.00;101726.22;5158255;27;20046;-69
2023/01/24 01:45:36;;;;;;;25.15;10.30;;;;;;;1.28;100.00;101729.44;5158788;27;20532;-67
2023/01/24 01:48:12;;;;;;;28.60;11.02;;;;;;;1.35;100.00;101723.91;5158215;27;20047;-71
2023/01/24 01:50:43;;;;;;;30.63;10.35;;;;;;;1.42;100.00;101730.00;5158089;27;20099;-70
2023/01/24 01:53:10;;;;;;;32.35;12.82;;;;;;;1.38;100.00;101734.25;5158164;27;20050;-70
2023/01/24 01:55:41;;;;;;;25.77;9.77;;;;;;;1.15;100.00;101741.34;5158401;27;20054;-67
2023/01/24 01:58:08;;;;;;;27.77;9.77;;;;;;;1.15;100.00;101740.53;5158194;27;20047;-68
2023/01/24 02:00:34;;;;;;;29.20;9.73;;;;;;;1.12;100.00;101735.59;5158238;27;20061;-67
2023/01/24 02:05:50;;;;;;;25.92;9.45;;;;;;;1.29;100.00;101724.88;5158121;27;20454;-68
2023/01/24 02:08:21;;;;;;;36.78;10.55;;;;;;;1.31;100.00;101725.47;5158290;27;20373;-69
2023/01/24 02:13:35;;;;;;;27.58;10.88;;;;;;;1.42;100.00;101720.00;5158415;27;20062;-69
2023/01/24 02:16:03;;;;;;;29.25;11.27;;;;;;;1.44;100.00;101727.06;5161982;27;20297;-70
2023/01/24 02:18:31;;;;;;;26.75;11.18;;;;;;;1.38;100.00;101729.66;5161719;27;20061;-67
2023/01/24 02:20:58;;;;;;;26.50;10.65;;;;;;;1.39;100.00;101720.47;5161983;27;20083;-68
2023/01/24 02:23:33;;;;;;;27.13;10.18;;;;;;;1.44;100.00;101724.34;5161581;27;20054;-68
2023/01/24 02:26:05;;;;;;;52.15;19.08;;;;;;;1.52;100.00;101721.25;5161916;27;20058;-67
2023/01/24 02:28:32;;;;;;;32.03;11.60;;;;;;;1.56;100.00;101730.50;5161390;27;20046;-70
2023/01/24 02:30:59;;;;;;;30.25;10.73;;;;;;;1.52;100.00;101734.78;5161855;27;20051;-68
2023/01/24 02:33:26;;;;;;;30.65;10.75;;;;;;;1.46;100.00;101730.31;5161274;27;20043;-70
2023/01/24 02:36:13;;;;;;;31.80;11.25;;;;;;;1.42;100.00;101732.69;5161569;27;20073;-68
2023/01/24 02:38:43;;;;;;;35.05;11.65;;;;;;;1.45;100.00;101726.81;5161375;27;20055;-69
2023/01/24 02:41:10;;;;;;;23.83;9.40;;;;;;;1.45;100.00;101732.22;5161401;27;20110;-69
2023/01/24 02:43:41;;;;;;;26.98;10.88;;;;;;;1.46;100.00;101730.31;5161459;27;20046;-69
2023/01/24 02:46:07;;;;;;;29.45;10.10;;;;;;;1.41;100.00;101726.47;5161299;27;20050;-70
2023/01/24 02:48:34;;;;;;;24.23;11.00;;;;;;;1.41;100.00;101731.88;5161501;27;20118;-67
2023/01/24 02:53:44;;;;;;;26.20;10.98;;;;;;;1.39;100.00;101722.34;5161573;27;20079;-67
2023/01/24 02:58:55;;;;;;;33.53;11.55;;;;;;;1.43;100.00;101720.81;5161037;27;20057;-68
2023/01/24 03:01:23;;;;;;;40.45;15.00;;;;;;;1.36;100.00;101720.94;5161273;27;20138;-70
2023/01/24 03:03:50;;;;;;;37.53;15.60;;;;;;;1.34;100.00;101720.38;5160768;27;20083;-70
2023/01/24 03:06:18;;;;;;;31.67;12.98;;;;;;;1.44;100.00;101721.66;5161168;27;20083;-69
2023/01/24 03:08:44;;;;;;;29.58;11.75;;;;;;;1.34;100.00;101728.50;5160816;27;20051;-70
2023/01/24 03:11:12;;;;;;;26.33;9.95;;;;;;;1.30;100.00;101723.78;5161198;27;20053;-70
2023/01/24 03:35:36;;;;;;;34.50;12.20;;;;;;;1.36;100.00;101728.25;5160653;27;20054;-69
2023/01/24 03:40:52;;;;;;;28.02;10.63;;;;;;;1.45;100.00;101729.50;5160397;27;20057;-68
2023/01/24 03:43:19;;;;;;;33.97;12.55;;;;;;;1.52;100.00;101727.47;5160228;27;20053;-68
2023/01/24 03:45:45;;;;;;;30.35;12.13;;;;;;;1.34;100.00;101733.91;5160514;27;20122;-70
2023/01/24 03:48:12;;;;;;;35.17;10.82;;;;;;;1.49;100.00;101735.25;5160015;27;20434;-67
2023/01/24 03:53:26;;;;;;;33.47;11.35;;;;;;;1.33;100.00;101728.72;5160171;27;20091;-66
2023/01/24 03:55:54;;;;;;;38.47;12.18;;;;;;;1.42;100.00;101727.28;5160409;27;20042;-70
2023/01/24 03:58:21;;;;;;;33.10;11.70;;;;;;;1.45;100.00;101724.09;5160011;27;20054;-69
2023/01/24 04:00:47;;;;;;;32.28;12.63;;;;;;;1.48;100.00;101722.81;5160396;27;20391;-70
2023/01/24 04:03:14;;;;;;;33.25;11.95;;;;;;;1.37;100.00;101722.59;5159821;27;20064;-67
2023/01/24 04:05:40;;;;;;;35.45;13.65;;;;;;;1.41;100.00;101717.53;5160327;27;20051;-70
2023/01/24 04:08:07;;;;;;;29.65;11.75;;;;;;;1.55;100.00;101729.69;5160080;27;20117;-68
2023/01/24 04:10:34;;;;;;;32.85;12.30;;;;;;;1.47;100.00;101723.88;5160082;27;20096;-69
2023/01/24 04:13:00;;;;;;;32.20;12.18;;;;;;;1.01;100.00;101721.06;5159894;27;20043;-70
2023/01/24 04:15:29;;;;;;;34.38;11.93;;;;;;;1.16;100.00;101707.84;5159682;27;20430;-70
2023/01/24 04:17:56;;;;;;;35.05;12.35;;;;;;;1.41;100.00;101714.84;5159838;27;20400;-70
2023/01/24 04:20:23;;;;;;;38.65;12.13;;;;;;;1.44;100.00;101719.75;5159653;27;20053;-67
2023/01/24 04:22:49;;;;;;;37.15;13.05;;;;;;;1.49;100.00;101716.31;5159889;27;20057;-68
2023/01/24 04:25:16;;;;;;;35.33;12.15;;;;;;;1.39;100.00;101719.66;5159640;27;20339;-70
2023/01/24 04:27:42;;;;;;;35.67;12.68;;;;;;;1.46;100.00;101714.09;5160020;27;20193;-67
2023/01/24 04:30:11;;;;;;;49.08;16.98;;;;;;;1.53;100.00;101706.66;5159414;27;20053;-67
2023/01/24 04:32:38;;;;;;;42.45;16.63;;;;;;;1.57;100.00;101716.78;5159870;27;20075;-69
2023/01/24 04:35:05;;;;;;;46.42;18.17;;;;;;;1.56;100.00;101715.09;5159662;27;20400;-69
2023/01/24 04:37:32;;;;;;;38.72;14.50;;;;;;;1.53;100.00;101725.59;5158264;27;20046;-68
2023/01/24 04:40:00;;;;;;;38.90;14.82;;;;;;;1.58;100.00;101717.59;5159526;27;20301;-71
2023/01/24 04:42:26;;;;;;;47.45;16.38;;;;;;;1.51;100.00;101717.72;5159215;27;20043;-70
2023/01/24 04:44:53;;;;;;;49.70;16.13;;;;;;;1.58;100.00;101721.09;5159622;27;20062;-71
2023/01/24 04:47:19;;;;;;;43.50;14.25;;;;;;;1.59;100.00;101720.03;5159368;27;20405;-67
2023/01/24 04:49:46;;;;;;;36.80;16.67;;;;;;;1.57;100.00;101715.94;5159277;27;20054;-70
2023/01/24 04:52:13;;;;;;;47.88;17.70;;;;;;;1.64;100.00;101712.03;5159006;27;20102;-69
2023/01/24 04:54:39;;;;;;;50.20;17.80;;;;;;;1.55;100.00;101713.47;5159469;27;20053;-68
2023/01/24 04:57:06;;;;;;;59.30;19.13;;;;;;;1.66;100.00;101719.88;5158941;27;20051;-68
2023/01/24 04:59:32;;;;;;;54.67;18.02;;;;;;;1.35;100.00;101713.91;5159455;27;20058;-68
2023/01/24 05:01:58;;;;;;;51.50;17.73;;;;;;;1.29;100.00;101714.06;5158859;27;20114;-69
2023/01/24 05:04:24;;;;;;;54.03;19.25;;;;;;;1.50;100.00;101713.41;5159055;27;20058;-68
2023/01/24 05:06:51;;;;;;;48.50;18.33;;;;;;;1.55;100.00;101712.66;5159030;27;20055;-72
2023/01/24 05:09:17;;;;;;;62.35;21.67;;;;;;;1.27;100.00;101706.19;5158720;27;20053;-73
2023/01/24 05:11:44;;;;;;;65.88;22.02;;;;;;;1.55;100.00;101707.25;5159125;27;20054;-70
2023/01/24 05:14:11;;;;;;;54.70;19.77;;;;;;;1.61;100.00;101707.09;5158742;27;20046;-75
2023/01/24 05:16:37;;;;;;;48.17;17.40;;;;;;;1.57;100.00;101708.66;5159091;27;20364;-64
2023/01/24 05:19:04;;;;;;;51.95;18.02;;;;;;;1.63;100.00;101712.25;5158814;27;20054;-65
2023/01/24 05:21:30;;;;;;;54.55;19.02;;;;;;;1.75;100.00;101712.22;5158994;27;20323;-67
2023/01/24 05:23:57;;;;;;;55.97;18.80;;;;;;;1.67;100.00;101709.88;5158447;27;20043;-68
2023/01/24 05:26:26;;;;;;;53.58;18.00;;;;;;;1.73;100.00;101709.72;5158936;27;20057;-69
2023/01/24 05:28:53;;;;;;;51.55;18.70;;;;;;;1.73;100.00;101709.72;5158297;27;20061;-65
2023/01/24 05:31:20;;;;;;;45.15;16.52;;;;;;;1.72;100.00;101713.50;5158779;27;20047;-69
2023/01/24 05:33:47;;;;;;;49.72;15.93;;;;;;;1.70;100.00;101712.94;5158499;27;20047;-67
2023/01/24 05:36:17;;;;;;;49.95;17.98;;;;;;;1.71;100.00;101709.16;5158347;27;20074;-70
2023/01/24 05:38:44;;;;;;;47.47;17.65;;;;;;;1.82;100.00;101710.97;5158579;27;20392;-66
2023/01/24 05:41:12;;;;;;;53.03;17.50;;;;;;;1.84;100.00;101708.03;5158282;27;20042;-67
2023/01/24 05:43:39;;;;;;;48.33;18.50;;;;;;;1.85;100.00;101702.38;5158390;27;20050;-68
2023/01/24 05:46:07;;;;;;;46.08;17.08;;;;;;;1.68;100.00;101698.84;5158180;27;20065;-66
2023/01/24 05:48:34;;;;;;;47.33;17.95;;;;;;;1.88;100.00;101701.88;5158185;27;20054;-67
2023/01/24 05:51:01;;;;;;;55.22;19.05;;;;;;;1.75;100.00;101696.78;5158091;27;20305;-69
2023/01/24 05:53:29;;;;;;;44.45;16.77;;;;;;;1.67;100.00;101702.63;5158416;27;20137;-69
2023/01/24 05:55:56;;;;;;;63.42;20.60;;;;;;;1.74;100.00;101697.88;5157974;27;20043;-66
2023/01/24 05:58:23;;;;;;;54.60;17.90;;;;;;;1.73;100.00;101690.78;5157882;27;20061;-69
2023/01/24 06:00:50;;;;;;;54.83;18.65;;;;;;;1.85;100.00;101696.97;5157978;27;20050;-67
2023/01/24 06:03:16;;;;;;;53.08;19.83;;;;;;;1.82;100.00;101694.75;5157796;27;20046;-70
2023/01/24 06:05:46;;;;;;;55.63;18.27;;;;;;;1.77;100.00;101691.16;5158037;27;20094;-67
2023/01/24 06:08:12;;;;;;;50.55;17.80;;;;;;;1.70;100.00;101699.44;5157947;27;20332;-66
2023/01/24 06:10:38;;;;;;;44.90;16.60;;;;;;;1.88;100.00;101696.47;5157729;27;20103;-71
2023/01/24 06:13:04;;;;;;;46.88;18.58;;;;;;;1.77;100.00;101702.78;5157811;27;20343;-66
2023/01/24 06:15:31;;;;;;;45.15;17.15;;;;;;;1.63;100.00;101705.00;5157877;27;20323;-70
2023/01/24 06:17:58;;;;;;;43.00;17.67;;;;;;;1.79;100.00;101705.25;5157202;27;20050;-67
2023/01/24 06:20:24;;;;;;;50.67;18.90;;;;;;;1.88;100.00;101704.59;5158002;27;20058;-69
2023/01/24 06:22:53;;;;;;;44.30;16.33;;;;;;;1.93;100.00;101711.97;5157465;27;20047;-69
2023/01/24 06:25:22;;;;;;;45.80;16.73;;;;;;;1.92;100.00;101704.09;5157504;27;20061;-68
2023/01/24 06:27:50;;;;;;;46.30;17.35;;;;;;;1.94;100.00;101704.69;5157495;27;20050;-69
2023/01/24 06:30:18;;;;;;;46.80;18.95;;;;;;;1.96;100.00;101705.25;5157385;27;20050;-69
2023/01/24 06:33:18;;;;;;;41.42;16.23;;;;;;;1.70;100.00;101707.53;5157707;27;20366;-69
2023/01/24 06:36:03;;;;;;;42.10;17.35;;;;;;;1.81;100.00;101698.53;5141619;27;20061;-70
2023/01/24 06:38:30;;;;;;;43.03;16.80;;;;;;;1.82;100.00;101697.47;5157726;27;20046;-69
2023/01/24 06:40:59;;;;;;;45.45;16.95;;;;;;;1.92;100.00;101698.69;5157259;27;20380;-66
2023/01/24 06:43:26;;;;;;;45.50;15.98;;;;;;;2.02;100.00;101707.78;5157640;27;20050;-68
2023/01/24 06:45:52;;;;;;;40.38;15.77;;;;;;;2.15;100.00;101698.53;5157602;27;20103;-68
2023/01/24 06:48:19;;;;;;;40.10;14.85;;;;;;;1.94;100.00;101700.09;5157398;27;20051;-71
2023/01/24 06:50:45;;;;;;;43.95;16.08;;;;;;;1.97;100.00;101701.50;5157348;27;20043;-68
2023/01/24 06:53:14;;;;;;;37.85;16.00;;;;;;;1.96;100.00;101699.84;5157166;27;20404;-70
2023/01/24 06:55:40;;;;;;;40.40;13.55;;;;;;;1.86;100.00;101708.59;5157423;27;20138;-71
2023/01/24 06:58:06;;;;;;;31.23;14.20;;;;;;;2.00;100.00;101709.09;5157236;27;20332;-67
2023/01/24 07:00:32;;;;;;;33.53;15.05;;;;;;;2.12;100.00;101712.56;5159388;27;20301;-71
2023/01/24 07:02:59;;;;;;;32.67;16.08;;;;;;;2.18;100.00;101705.34;5160765;27;20376;-68
2023/01/24 07:05:27;;;;;;;39.88;15.70;;;;;;;2.04;100.00;101705.69;5161031;27;20046;-67
2023/01/24 07:07:53;;;;;;;34.75;15.27;;;;;;;1.98;100.00;101697.72;5160521;27;20066;-70
2023/01/24 07:10:20;;;;;;;32.58;14.73;;;;;;;2.17;100.00;101698.31;5160955;27;20431;-70
2023/01/24 07:12:46;;;;;;;29.05;14.32;;;;;;;2.12;100.00;101699.84;5160460;27;20415;-66
2023/01/24 07:15:12;;;;;;;36.78;15.82;;;;;;;2.05;100.00;101704.59;5160422;27;20065;-70
2023/01/24 07:17:39;;;;;;;36.55;14.45;;;;;;;2.10;100.00;101704.69;5160624;27;20138;-70
2023/01/24 07:20:07;;;;;;;31.67;14.32;;;;;;;2.11;100.00;101710.94;5160432;27;20325;-68
2023/01/24 07:22:37;;;;;;;30.63;14.85;;;;;;;2.08;100.00;101711.41;5160502;27;20141;-66
2023/01/24 07:25:04;;;;;;;31.67;13.10;;;;;;;2.16;100.00;101708.28;5160119;27;20114;-65
2023/01/24 07:27:31;;;;;;;29.27;13.63;;;;;;;2.07;100.00;101704.38;5160607;27;20058;-67
2023/01/24 07:29:57;;;;;;;30.85;14.07;;;;;;;2.02;100.00;101701.56;5160196;27;20051;-67
2023/01/24 07:32:24;;;;;;;27.60;12.70;;;;;;;2.29;100.00;101704.44;5160543;27;20487;-68
2023/01/24 07:34:50;;;;;;;38.78;15.15;;;;;;;2.25;100.00;101708.72;5160050;27;20058;-68
2023/01/24 07:37:21;;;;;;;30.60;13.70;;;;;;;2.29;100.00;101716.06;5160519;27;20102;-69
2023/01/24 07:39:48;;;;;;;32.10;12.30;;;;;;;2.20;100.00;101725.69;5159965;27;20059;-68
2023/01/24 07:42:14;;;;;;;33.53;12.48;;;;;;;2.27;100.00;101720.94;5159811;27;20134;-70
2023/01/24 07:44:40;;;;;;;25.10;12.02;;;;;;;2.13;100.00;101722.31;5160112;27;20065;-66
2023/01/24 07:47:07;;;;;;;30.02;13.13;;;;;;;2.23;100.00;101727.91;5159841;27;20055;-69
2023/01/24 07:49:33;;;;;;;31.88;11.95;;;;;;;2.17;100.00;101737.00;5160242;27;20050;-66
2023/01/24 07:51:59;;;;;;;30.00;13.48;;;;;;;1.93;100.00;101744.44;5159927;27;20102;-69
2023/01/24 07:54:25;;;;;;;30.77;13.05;;;;;;;2.06;100.00;101737.88;5160026;27;20080;-67
2023/01/24 07:56:52;;;;;;;28.00;12.65;;;;;;;2.00;100.00;101737.00;5159845;27;20051;-68
2023/01/24 07:59:19;;;;;;;32.65;12.38;;;;;;;2.16;100.00;101735.34;5160145;27;20058;-70
2023/01/24 08:01:46;;;;;;;23.88;11.13;;;;;;;2.11;100.00;101738.00;5159687;27;20558;-68
2023/01/24 08:04:13;;;;;;;26.15;12.07;;;;;;;2.17;100.00;101731.59;5160136;27;20101;-65
2023/01/24 08:07:16;;;;;;;24.75;12.07;;;;;;;2.12;100.00;101734.22;5159596;27;20057;-68
2023/01/24 08:09:26;;;;;;;23.75;12.05;;;;;;;2.11;100.00;101733.41;5159203;27;20061;-68
2023/01/24 08:11:53;;;;;;;30.33;13.32;;;;;;;2.12;100.00;101721.50;5158381;27;20056;-66
2023/01/24 08:14:19;;;;;;;23.10;11.07;;;;;;;2.08;100.00;101733.88;5159606;27;20099;-69
2023/01/24 08:16:45;;;;;;;27.10;11.13;;;;;;;2.08;100.00;101733.88;5159899;27;20046;-67
2023/01/24 08:19:12;;;;;;;22.13;10.15;;;;;;;2.11;100.00;101727.97;5159541;27;20381;-69
2023/01/24 08:21:38;;;;;;;23.48;11.05;;;;;;;2.11;100.00;101740.69;5159705;27;20133;-68
2023/01/24 08:24:05;;;;;;;20.17;10.73;;;;;;;2.15;100.00;101735.63;5159300;27;20054;-68
2023/01/24 08:26:31;;;;;;;22.45;10.50;;;;;;;2.22;100.00;101728.16;5159285;27;20057;-69
2023/01/24 08:28:58;;;;;;;30.17;11.85;;;;;;;2.25;100.00;101733.06;5159188;27;20134;-66
2023/01/24 08:31:24;;;;;;;25.88;12.13;;;;;;;2.26;100.00;101729.28;5159479;27;20134;-67
2023/01/24 08:33:51;;;;;;;29.30;13.20;;;;;;;2.26;100.00;101730.09;5159443;27;20047;-68
2023/01/24 08:36:19;;;;;;;22.50;10.68;;;;;;;2.25;100.00;101728.47;5159275;27;20134;-71
2023/01/24 08:38:45;;;;;;;25.17;12.35;;;;;;;2.23;100.00;101724.38;5159271;27;20046;-70
2023/01/24 08:41:11;;;;;;;30.38;14.93;;;;;;;2.11;100.00;101713.63;5159075;27;20046;-69
2023/01/24 08:43:38;;;;;;;25.38;11.57;;;;;;;2.19;100.00;101715.91;5159149;27;20082;-67
2023/01/24 08:46:05;;;;;;;27.17;12.35;;;;;;;2.17;100.00;101714.53;5158912;27;20118;-69
2023/01/24 08:48:31;;;;;;;35.20;12.13;;;;;;;2.28;100.00;101722.56;5159284;27;20046;-67
2023/01/24 08:50:58;;;;;;;25.02;11.88;;;;;;;2.27;100.00;101720.94;5158903;27;20076;-67
2023/01/24 08:53:24;;;;;;;25.55;12.40;;;;;;;2.26;100.00;101713.03;5159330;27;20051;-69
2023/01/24 08:55:51;;;;;;;26.95;11.55;;;;;;;2.25;100.00;101720.34;5158897;27;20192;-66
2023/01/24 08:58:17;;;;;;;26.23;12.52;;;;;;;2.18;100.00;101727.81;5159042;27;20073;-68
2023/01/24 09:00:44;;;;;;;27.83;11.90;;;;;;;2.17;100.00;101725.38;5158986;27;20051;-68
2023/01/24 09:03:12;;;;;;;21.48;10.73;;;;;;;2.18;100.00;101719.69;5158583;27;20050;-69
2023/01/24 09:05:38;;;;;;;25.52;11.68;;;;;;;2.09;100.00;101723.88;5158495;27;20419;-67
2023/01/24 09:08:05;;;;;;;26.08;11.75;;;;;;;2.20;100.00;101716.72;5158562;27;20047;-68
2023/01/24 09:10:31;;;;;;;23.67;11.40;;;;;;;2.11;100.00;101714.44;5158609;27;20047;-68
2023/01/24 09:12:58;;;;;;;22.98;11.02;;;;;;;2.07;100.00;101723.31;5158469;27;20487;-70
2023/01/24 09:15:24;;;;;;;24.75;11.63;;;;;;;2.12;100.00;101716.09;5158809;27;20050;-69
2023/01/24 09:17:50;;;;;;;23.13;11.05;;;;;;;2.10;100.00;101726.34;5158477;27;20114;-69
2023/01/24 09:20:18;;;;;;;25.85;12.55;;;;;;;2.06;100.00;101721.66;5158980;27;20058;-67
2023/01/24 09:22:44;;;;;;;24.90;10.68;;;;;;;2.06;100.00;101724.38;5157982;27;20050;-67
2023/01/24 09:25:10;;;;;;;22.65;9.98;;;;;;;1.98;100.00;101724.78;5158981;27;20047;-70
2023/01/24 09:27:37;;;;;;;21.20;9.77;;;;;;;2.06;100.00;101719.75;5158306;27;20137;-68
2023/01/24 09:30:05;;;;;;;20.20;9.95;;;;;;;2.06;100.00;101716.25;5158133;27;20047;-70
2023/01/24 09:32:31;;;;;;;24.00;9.68;;;;;;;1.99;100.00;101707.47;5158186;27;20050;-67
2023/01/24 09:34:58;;;;;;;25.08;11.05;;;;;;;1.86;100.00;101706.72;5158245;27;20420;-70
2023/01/24 09:37:25;;;;;;;22.40;11.52;;;;;;;1.66;100.00;101703.66;5158382;27;20054;-66
2023/01/24 09:39:55;;;;;;;22.60;9.95;;;;;;;1.92;100.00;101712.22;5158703;27;20051;-67
2023/01/24 09:42:28;;;;;;;24.90;11.18;;;;;;;1.98;100.00;101706.66;5158338;27;20050;-70
2023/01/24 09:45:08;;;;;;;20.83;10.13;;;;;;;1.91;100.00;101699.78;5158287;27;20054;-67
2023/01/24 09:47:42;;;;;;;18.92;9.43;;;;;;;1.88;100.00;101695.66;5158652;27;20054;-67
2023/01/24 09:50:15;;;;;;;22.48;11.43;;;;;;;1.98;100.00;101695.84;5157945;27;20058;-67
2023/01/24 09:52:44;;;;;;;22.53;11.00;;;;;;;2.15;100.00;101708.53;5157896;27;20073;-68
2023/01/24 09:55:15;;;;;;;19.90;10.02;;;;;;;2.16;100.00;101702.88;5158032;27;20050;-71
2023/01/24 09:57:49;;;;;;;19.95;10.20;;;;;;;2.03;100.00;101695.09;5158220;27;20467;-67
2023/01/24 10:00:21;;;;;;;24.17;10.02;;;;;;;2.13;100.00;101697.94;5158425;27;20069;-67
2023/01/24 10:02:47;;;;;;;22.50;10.23;;;;;;;2.10;100.00;101690.34;5157544;27;20142;-69
2023/01/24 10:05:16;;;;;;;16.15;8.88;;;;;;;2.07;100.00;101686.25;5158305;27;20177;-68
2023/01/24 10:08:02;;;;;;;23.38;10.55;;;;;;;2.03;100.00;101684.25;5157853;27;20043;-70
2023/01/24 10:10:44;;;;;;;19.63;10.35;;;;;;;2.10;100.00;101693.88;5157700;27;20125;-68
2023/01/24 10:13:27;;;;;;;17.17;9.23;;;;;;;2.03;100.00;101687.81;5155699;27;20053;-70
2023/01/24 10:16:05;;;;;;;18.17;9.68;;;;;;;2.03;100.00;101682.41;5157721;27;20357;-68
2023/01/24 10:18:51;;;;;;;22.23;9.73;;;;;;;1.85;100.00;101680.75;5157839;27;20142;-70
2023/01/24 10:21:41;;;;;;;20.58;9.50;;;;;;;1.86;100.00;101671.56;5154969;27;20061;-68
2023/01/24 10:24:12;;;;;;;16.40;9.00;;;;;;;2.04;100.00;101664.28;5156986;27;20146;-68
2023/01/24 10:26:43;;;;;;;11.32;6.78;;;;;;;1.89;100.00;101654.84;5157861;27;20396;-68
2023/01/24 10:29:14;;;;;;;15.35;7.82;;;;;;;1.75;100.00;101634.59;5157583;27;20050;-70
2023/01/24 10:31:43;;;;;;;12.52;7.63;;;;;;;1.93;100.00;101641.63;5157666;27;20106;-68
2023/01/24 10:34:12;;;;;;;15.45;7.95;;;;;;;2.05;100.00;101625.31;5157279;27;20051;-72
2023/01/24 10:36:43;;;;;;;15.43;7.60;;;;;;;2.04;100.00;101618.28;5161276;27;20047;-68
2023/01/24 10:39:10;;;;;;;14.30;8.05;;;;;;;2.01;100.00;101606.06;5161069;27;20061;-67
2023/01/24 10:41:37;;;;;;;16.98;7.35;;;;;;;1.97;100.00;101607.63;5160742;27;20054;-69
2023/01/24 10:44:09;;;;;;;14.82;7.82;;;;;;;1.98;100.00;101603.84;5160986;27;20046;-68
2023/01/24 10:46:58;;;;;;;14.77;7.43;;;;;;;2.02;100.00;101610.41;5161008;27;20047;-71
2023/01/24 10:49:28;;;;;;;11.93;6.43;;;;;;;1.62;100.00;101592.47;5161163;27;20350;-70
2023/01/24 10:52:14;;;;;;;15.95;8.75;;;;;;;1.70;100.00;101583.16;5160963;27;20495;-67
2023/01/24 10:54:50;;;;;;;13.02;8.07;;;;;;;1.70;100.00;101566.06;5161235;27;20368;-69
2023/01/24 10:57:39;;;;;;;13.07;7.75;;;;;;;1.83;100.00;101568.44;5161009;27;20387;-70
2023/01/24 11:00:29;;;;;;;21.98;10.52;;;;;;;1.83;100.00;101553.06;5160830;27;20337;-68
2023/01/24 11:02:56;;;;;;;22.52;10.27;;;;;;;1.85;100.00;101555.50;5160944;27;20047;-70
2023/01/24 11:05:24;;;;;;;19.70;8.77;;;;;;;1.93;100.00;101560.47;5160931;27;20110;-67
2023/01/24 11:07:53;;;;;;;20.13;9.95;;;;;;;1.95;100.00;101546.72;5161068;27;20050;-68
2023/01/24 11:10:23;;;;;;;20.02;10.35;;;;;;;1.92;100.00;101539.91;5160743;27;20141;-70
2023/01/24 11:12:53;;;;;;;18.27;9.57;;;;;;;2.10;100.00;101534.22;5161179;27;20118;-68
2023/01/24 11:15:25;;;;;;;13.10;8.18;;;;;;;1.91;100.00;101522.06;5160773;27;20379;-70
2023/01/24 11:17:57;;;;;;;13.55;8.13;;;;;;;1.75;100.00;101512.09;5160917;27;20106;-66
2023/01/24 11:20:29;;;;;;;17.25;9.52;;;;;;;1.63;100.00;101525.69;5160755;27;20077;-69
2023/01/24 11:23:03;;;;;;;18.10;9.32;;;;;;;1.41;100.00;101507.53;5160514;27;20385;-69
2023/01/24 11:25:30;;;;;;;16.10;8.38;;;;;;;1.64;100.00;101520.03;5160667;27;20046;-70
2023/01/24 11:27:56;;;;;;;19.25;10.52;;;;;;;1.77;100.00;101516.19;5160599;27;20054;-66
2023/01/24 11:30:22;;;;;;;29.05;13.35;;;;;;;1.49;100.00;101508.97;5160328;27;20046;-71
2023/01/24 11:33:15;;;;;;;17.80;9.20;;;;;;;1.69;100.00;101530.09;5160101;27;20042;-66
2023/01/24 11:35:46;;;;;;;21.63;10.27;;;;;;;1.87;100.00;101534.44;5160705;27;20107;-69
2023/01/24 11:38:26;;;;;;;16.90;8.32;;;;;;;1.92;100.00;101526.38;5160127;27;20103;-67
2023/01/24 11:41:10;;;;;;;15.35;8.63;;;;;;;1.78;100.00;101496.16;5159913;27;20058;-69
2023/01/24 11:43:49;;;;;;;16.60;9.15;;;;;;;1.88;100.00;101481.97;5159058;27;20046;-70
2023/01/24 11:46:37;;;;;;;17.85;9.10;;;;;;;1.88;100.00;101466.56;5159495;27;20376;-69
2023/01/24 11:49:19;;;;;;;16.77;10.02;;;;;;;1.91;100.00;101457.13;5160264;27;20060;-69
2023/01/24 11:51:54;;;;;;;17.45;9.23;;;;;;;1.86;100.00;101440.81;5160136;27;20129;-69
2023/01/24 11:54:43;;;;;;;13.40;7.95;;;;;;;1.71;100.00;101417.13;5159949;27;20054;-68
2023/01/24 11:57:25;;;;;;;14.60;8.27;;;;;;;1.91;100.00;101424.66;5159417;27;20067;-70